Time;durP1;ratioP1;P1;durP2;ratioP2;P2;SDS_P1;SDS_P2;PMS_P1;PMS_P2;Temp;Humidity;BMP_temperature;BMP_pressure;BME280_temperature;BME280_humidity;BME280_pressure;Samples;Min_cycle;Max_cycle;Signal;HPM_P1;HPM_P2
2021/04/10 00:00:42;;;;;;;1999.90;999.90;;;;;;;9.88;52.53;100755.38;15913940;27;20103;-56
2021/04/10 00:08:14;;;;;;;1999.90;999.90;;;;;;;9.73;53.24;100762.28;15892708;27;20039;-56
2021/04/10 00:15:46;;;;;;;1999.90;999.90;;;;;;;9.57;54.31;100761.09;15761180;22;20052;-69
2021/04/10 00:23:18;;;;;;;1999.90;999.90;;;;;;;9.25;54.75;100756.75;15735927;22;20053;-62
2021/04/10 00:30:50;;;;;;;1999.90;999.90;;;;;;;9.36;55.21;100766.44;15711255;28;20155;-63
2021/04/10 00:38:22;;;;;;;1999.90;999.90;;;;;;;9.15;56.30;100757.06;15724397;28;20385;-63
2021/04/10 00:45:54;;;;;;;1999.90;999.90;;;;;;;9.06;56.20;100736.72;15742711;28;20087;-62
2021/04/10 00:53:27;;;;;;;1999.90;999.90;;;;;;;8.99;56.61;100737.19;15723756;28;20055;-63
2021/04/10 01:01:01;;;;;;;1999.90;999.90;;;;;;;8.59;57.34;100739.97;15723845;28;20040;-63
2021/04/10 01:08:33;;;;;;;1999.90;999.90;;;;;;;8.58;57.34;100734.72;15722970;28;20060;-63
2021/04/10 01:16:12;;;;;;;1999.90;999.90;;;;;;;8.79;56.89;100757.25;15740695;28;20069;-63
2021/04/10 01:23:56;;;;;;;1999.90;999.90;;;;;;;8.73;56.90;100734.28;15741444;28;20045;-63
2021/04/10 01:31:37;;;;;;;1999.90;999.90;;;;;;;8.47;57.66;100747.25;15741708;28;20064;-63
2021/04/10 01:39:12;;;;;;;1999.90;999.90;;;;;;;8.48;57.98;100754.47;15722591;28;20044;-63
2021/04/10 01:46:46;;;;;;;1999.90;999.90;;;;;;;8.53;57.93;100741.22;15739453;28;20566;-62
2021/04/10 01:54:20;;;;;;;1999.90;999.90;;;;;;;8.46;58.36;100745.63;15705055;28;20052;-63
2021/04/10 02:01:55;;;;;;;1999.90;999.90;;;;;;;8.67;58.45;100753.09;15721705;28;20056;-62
2021/04/10 02:09:38;;;;;;;;;;;;;;;8.67;58.56;100749.50;15721554;28;20036;-62
2021/04/10 02:17:37;;;;;;;1999.90;999.90;;;;;;;8.73;58.36;100748.19;15718196;28;19924;-63
2021/04/10 02:25:13;;;;;;;1999.90;999.90;;;;;;;8.63;59.81;100742.91;15725688;28;20454;-63
2021/04/10 02:32:53;;;;;;;1999.90;999.90;;;;;;;8.66;59.48;100754.25;15749778;28;20064;-62
2021/04/10 02:40:30;;;;;;;1999.90;999.90;;;;;;;8.83;59.05;100767.41;15731702;28;20449;-63
2021/04/10 02:48:09;;;;;;;1999.90;999.90;;;;;;;9.01;58.18;100771.09;15714707;28;20093;-63
2021/04/10 02:55:44;;;;;;;1999.90;999.90;;;;;;;8.84;58.99;100768.22;15749260;28;20048;-63
2021/04/10 03:03:22;;;;;;;1999.90;999.90;;;;;;;8.98;58.89;100765.34;15730705;28;20381;-63
2021/04/10 03:10:55;;;;;;;1999.90;999.90;;;;;;;9.06;59.17;100775.69;15730121;28;20396;-63
2021/04/10 03:18:29;;;;;;;1999.90;999.90;;;;;;;9.02;59.68;100769.94;15729716;28;20033;-63
2021/04/10 03:26:08;;;;;;;1999.90;999.90;;;;;;;8.95;60.33;100789.88;15712219;28;20047;-62
2021/04/10 03:33:43;;;;;;;1999.90;999.90;;;;;;;9.12;60.34;100794.72;15727153;28;20052;-63
2021/04/10 03:41:15;;;;;;;1999.90;999.90;;;;;;;9.18;61.49;100799.00;15729285;28;20095;-63
2021/04/10 03:48:48;;;;;;;1999.90;999.90;;;;;;;9.26;62.42;100811.31;15727982;28;20060;-63
2021/04/10 03:56:27;;;;;;;1999.90;999.90;;;;;;;9.22;61.59;100813.91;15726943;28;20045;-62
2021/04/10 04:04:04;;;;;;;1999.90;999.90;;;;;;;8.98;62.49;100816.28;15726390;28;20094;-62
2021/04/10 04:11:36;;;;;;;1999.90;999.90;;;;;;;9.01;63.36;100820.38;15744033;28;20102;-61
2021/04/10 04:19:08;;;;;;;1999.90;999.90;;;;;;;9.00;65.23;100830.69;15744781;28;20049;-63
2021/04/10 04:26:40;;;;;;;1999.90;999.90;;;;;;;8.63;68.11;100835.53;15746461;28;20040;-62
2021/04/10 04:34:12;;;;;;;1999.90;999.90;;;;;;;8.93;67.21;100836.69;15746677;28;20381;-61
2021/04/10 04:41:44;;;;;;;1999.90;999.90;;;;;;;8.90;67.71;100853.22;15727405;28;20082;-62
2021/04/10 04:49:16;;;;;;;1999.90;999.90;;;;;;;8.53;70.91;100860.81;15722914;28;20474;-63
2021/04/10 04:56:48;;;;;;;1999.90;999.90;;;;;;;9.03;69.04;100862.63;15723313;28;20130;-62
2021/04/10 05:04:20;;;;;;;1999.90;999.90;;;;;;;9.12;68.88;100869.88;15724431;28;20492;-64
2021/04/10 05:11:52;;;;;;;1999.90;999.90;;;;;;;8.96;69.94;100880.63;15729169;28;20056;-62
2021/04/10 05:19:24;;;;;;;1999.90;999.90;;;;;;;9.19;69.48;100895.31;15740427;28;20052;-62
2021/04/10 05:26:55;;;;;;;1999.90;999.90;;;;;;;9.28;70.18;100900.94;15704945;28;20420;-62
2021/04/10 05:34:28;;;;;;;1999.90;999.90;;;;;;;9.48;69.42;100913.44;15739428;28;20036;-61
2021/04/10 05:41:59;;;;;;;1999.90;999.90;;;;;;;9.17;71.23;100919.03;15740025;28;20041;-62
2021/04/10 05:49:31;;;;;;;1999.90;999.90;;;;;;;9.45;70.90;100917.72;15739694;28;20519;-63
2021/04/10 05:57:03;;;;;;;1999.90;999.90;;;;;;;9.41;71.26;100935.38;15722163;28;20090;-61
2021/04/10 06:04:36;;;;;;;1999.90;999.90;;;;;;;9.42;71.68;100923.94;15733750;28;20051;-62
2021/04/10 06:12:08;;;;;;;1999.90;999.90;;;;;;;9.66;70.37;100929.09;15733794;28;20485;-62
2021/04/10 06:19:41;;;;;;;1999.90;999.90;;;;;;;9.52;71.16;100939.53;15750231;28;20044;-60
2021/04/10 06:27:13;;;;;;;1999.90;999.90;;;;;;;9.81;69.88;100962.13;15732117;28;20073;-60
2021/04/10 06:34:46;;;;;;;1999.90;999.90;;;;;;;9.74;70.63;100955.38;15751550;28;20451;-60
2021/04/10 06:42:19;;;;;;;1999.90;999.90;;;;;;;9.74;70.85;100966.53;15750326;28;20431;-61
2021/04/10 06:49:53;;;;;;;1999.90;999.90;;;;;;;9.00;74.15;100953.16;15750146;28;20037;-61
2021/04/10 06:57:28;;;;;;;1999.90;999.90;;;;;;;9.10;74.02;100946.50;15752656;28;20044;-61
2021/04/10 07:05:00;;;;;;;1999.90;999.90;;;;;;;9.78;71.87;100953.56;15730585;28;20433;-58
2021/04/10 07:12:32;;;;;;;1999.90;999.90;;;;;;;9.54;73.39;100962.31;15747785;28;20564;-59
2021/04/10 07:20:26;;;;;;;1999.90;999.90;;;;;;;9.79;73.17;100964.41;15730019;28;20051;-62
2021/04/10 07:28:23;;;;;;;1999.90;999.90;;;;;;;10.08;71.50;100988.13;15746845;28;20039;-59
2021/04/10 07:35:56;;;;;;;1999.90;999.90;;;;;;;9.83;73.52;100972.94;15729450;28;20064;-62
2021/04/10 07:43:29;;;;;;;1999.90;999.90;;;;;;;9.63;73.69;100988.25;15728533;28;20048;-61
2021/04/10 07:51:02;;;;;;;1999.90;999.90;;;;;;;10.15;73.18;100999.63;15710804;28;20114;-60
2021/04/10 07:58:35;;;;;;;1999.90;999.90;;;;;;;10.49;70.44;101004.50;15711184;28;20041;-58
2021/04/10 08:06:15;;;;;;;1999.90;999.90;;;;;;;10.09;71.24;101012.06;15744749;28;20056;-62
2021/04/10 08:13:57;;;;;;;1999.90;999.90;;;;;;;10.18;71.78;101014.88;15725499;28;20052;-60
2021/04/10 08:21:54;;;;;;;1999.90;999.90;;;;;;;9.97;72.42;101037.78;15709238;28;20045;-58
2021/04/10 08:29:26;;;;;;;1999.90;999.90;;;;;;;9.94;72.34;101045.97;15723171;28;20071;-62
2021/04/10 08:37:02;;;;;;;1999.90;999.90;;;;;;;9.99;72.88;101056.97;15725975;28;20052;-63
2021/04/10 08:44:36;;;;;;;1999.90;999.90;;;;;;;10.19;71.84;101050.81;15707442;28;20425;-64
2021/04/10 08:52:10;;;;;;;1999.90;999.90;;;;;;;10.21;71.36;101068.03;15741555;28;20052;-64
2021/04/10 08:59:44;;;;;;;1999.90;999.90;;;;;;;10.67;71.05;101069.53;15723692;28;20033;-64
2021/04/10 09:07:17;;;;;;;1999.90;999.90;;;;;;;11.31;68.56;101074.53;15740470;28;20053;-64
2021/04/10 09:14:50;;;;;;;1999.90;999.90;;;;;;;11.50;67.18;101078.63;15740382;28;20508;-63
2021/04/10 09:22:22;;;;;;;1999.90;999.90;;;;;;;11.90;64.91;101085.97;15704888;28;20520;-63
2021/04/10 09:29:59;;;;;;;1999.90;999.90;;;;;;;12.02;65.97;101088.91;15738976;28;20044;-63
2021/04/10 09:38:00;;;;;;;1999.90;999.90;;;;;;;12.68;64.24;101103.25;15719401;28;20106;-61
2021/04/10 09:45:34;;;;;;;1999.90;999.90;;;;;;;12.86;60.86;101104.81;15735938;28;20045;-62
2021/04/10 09:53:26;;;;;;;;;;;;;;;11.79;60.12;101097.53;15723332;28;20048;-64
2021/04/10 10:01:03;;;;;;;1999.90;999.90;;;;;;;12.99;58.51;101109.31;15719226;28;20368;-62
2021/04/10 10:08:36;;;;;;;1999.90;999.90;;;;;;;11.85;58.85;101112.13;15718883;28;20393;-62
2021/04/10 10:16:08;;;;;;;1999.90;999.90;;;;;;;12.58;60.25;101120.44;15641432;28;20072;-62
2021/04/10 10:23:42;;;;;;;1999.90;999.90;;;;;;;12.09;59.95;101120.81;15704020;28;20132;-62
2021/04/10 10:31:16;;;;;;;1999.90;999.90;;;;;;;12.71;58.75;101138.97;15738270;28;20040;-63
2021/04/10 10:38:49;;;;;;;1999.90;999.90;;;;;;;11.94;60.69;101140.91;15680488;28;20588;-62
2021/04/10 10:46:21;;;;;;;1999.90;999.90;;;;;;;11.84;60.48;101146.84;15658525;28;20425;-62
2021/04/10 10:53:55;;;;;;;1999.90;999.90;;;;;;;12.39;57.50;101160.84;15729851;28;20055;-63
2021/04/10 11:01:29;;;;;;;1999.90;999.90;;;;;;;12.37;57.80;101146.38;15747807;28;20041;-61
2021/04/10 11:09:04;;;;;;;1999.90;999.90;;;;;;;12.61;58.48;101154.19;15747319;28;20056;-62
2021/04/10 11:16:41;;;;;;;1999.90;999.90;;;;;;;12.59;57.78;101159.28;15746596;28;20504;-59
2021/04/10 11:24:14;;;;;;;1999.90;999.90;;;;;;;12.67;57.45;101171.63;15746198;28;20052;-61
2021/04/10 11:32:17;;;;;;;1999.90;999.90;;;;;;;13.17;56.71;101187.66;15694283;28;20048;-62
2021/04/10 11:39:52;;;;;;;1999.90;999.90;;;;;;;13.29;54.72;101185.78;15661336;28;20056;-63
2021/04/10 11:47:25;;;;;;;1999.90;999.90;;;;;;;13.84;54.27;101184.69;15714355;28;20040;-62
2021/04/10 11:55:03;;;;;;;1999.90;999.90;;;;;;;13.37;53.11;101186.91;15666697;28;20083;-63
2021/04/10 12:02:38;;;;;;;1999.90;999.90;;;;;;;12.85;54.23;101175.16;15689737;28;20516;-64
2021/04/10 12:10:11;;;;;;;1999.90;999.90;;;;;;;12.26;58.62;101186.25;15696342;28;20037;-62
2021/04/10 12:17:42;;;;;;;1999.90;999.90;;;;;;;12.51;56.97;101193.75;15676388;28;20456;-62
2021/04/10 12:25:17;;;;;;;;;;;;;;;12.42;56.35;101198.56;15668649;28;20039;-61
2021/04/10 12:32:48;;;;;;;1999.90;999.90;;;;;;;12.62;55.29;101203.44;15616634;28;19928;-60
2021/04/10 12:40:21;;;;;;;1999.90;999.90;;;;;;;13.08;54.43;101198.94;15618825;28;20489;-61
2021/04/10 12:47:53;;;;;;;1999.90;999.90;;;;;;;12.64;55.22;101194.69;15641535;28;20152;-61
2021/04/10 12:55:26;;;;;;;1999.90;999.90;;;;;;;12.69;54.97;101188.91;15642627;28;20120;-60
2021/04/10 13:02:59;;;;;;;1999.90;999.90;;;;;;;13.22;53.79;101199.50;15640250;28;20778;-62
2021/04/10 13:10:31;;;;;;;1999.90;999.90;;;;;;;12.32;56.13;101204.50;15657037;28;20127;-61
2021/04/10 13:18:03;;;;;;;1999.90;999.90;;;;;;;12.61;55.71;101209.34;15645388;28;20551;-60
2021/04/10 13:25:37;;;;;;;1999.90;999.90;;;;;;;12.60;55.35;101199.31;15638432;28;20033;-61
2021/04/10 13:33:09;;;;;;;1999.90;999.90;;;;;;;12.14;55.83;101201.75;15681758;28;20044;-61
2021/04/10 13:40:41;;;;;;;1999.90;999.90;;;;;;;12.23;57.32;101192.53;15672769;28;20044;-61
2021/04/10 13:48:13;;;;;;;1999.90;999.90;;;;;;;12.45;56.23;101186.69;15665002;28;20316;-60
2021/04/10 13:55:46;;;;;;;1999.90;999.90;;;;;;;12.60;56.49;101193.69;15660535;28;20049;-59
2021/04/10 14:03:18;;;;;;;1999.90;999.90;;;;;;;12.83;55.50;101195.09;15670333;28;20045;-63
2021/04/10 14:10:52;;;;;;;1999.90;999.90;;;;;;;12.65;57.16;101202.75;15630156;28;20042;-63
2021/04/10 14:18:24;;;;;;;1999.90;999.90;;;;;;;12.43;56.91;101178.63;15685922;28;20037;-62
2021/04/10 14:25:56;;;;;;;1999.90;999.90;;;;;;;12.68;56.56;101187.25;15669300;28;20041;-61
2021/04/10 14:33:28;;;;;;;1999.90;999.90;;;;;;;12.49;56.54;101184.03;15690272;28;20045;-61
2021/04/10 14:41:00;;;;;;;1999.90;999.90;;;;;;;12.56;56.09;101189.94;15687524;28;20386;-62
2021/04/10 14:48:32;;;;;;;1999.90;999.90;;;;;;;12.71;55.85;101183.78;15693455;28;20098;-62
2021/04/10 14:56:07;;;;;;;1999.90;999.90;;;;;;;12.77;56.29;101181.63;15689068;28;20095;-64
2021/04/10 15:03:41;;;;;;;1999.90;999.90;;;;;;;12.93;54.96;101185.50;15695774;28;20135;-62
2021/04/10 15:11:13;;;;;;;1999.90;999.90;;;;;;;12.15;56.42;101171.78;15681038;28;20048;-59
2021/04/10 15:18:46;;;;;;;1999.90;999.90;;;;;;;11.92;57.39;101168.38;15716131;28;20053;-61
2021/04/10 15:26:18;;;;;;;1999.90;999.90;;;;;;;11.87;56.44;101156.53;15710605;28;20048;-61
2021/04/10 15:33:52;;;;;;;1999.90;999.90;;;;;;;11.94;57.03;101154.88;15723116;28;20403;-61
2021/04/10 15:41:25;;;;;;;1999.90;999.90;;;;;;;12.17;56.83;101146.28;15725540;28;20098;-61
2021/04/10 15:48:56;;;;;;;1999.90;999.90;;;;;;;12.24;56.26;101150.22;15710108;28;20114;-61
2021/04/10 15:56:29;;;;;;;1999.90;999.90;;;;;;;12.47;55.52;101144.38;15745975;28;20497;-59
2021/04/10 16:04:02;;;;;;;1999.90;999.90;;;;;;;12.27;56.09;101140.31;15728436;28;20064;-58
2021/04/10 16:11:35;;;;;;;1999.90;999.90;;;;;;;12.25;55.86;101137.84;15745678;28;20119;-59
2021/04/10 16:19:07;;;;;;;1999.90;999.90;;;;;;;12.09;56.49;101134.78;15710669;28;20495;-62
2021/04/10 16:26:39;;;;;;;1999.90;999.90;;;;;;;11.70;57.07;101135.00;15745327;28;20045;-62
2021/04/10 16:34:11;;;;;;;1999.90;999.90;;;;;;;11.53;60.46;101144.19;15727910;28;20132;-61
2021/04/10 16:41:43;;;;;;;1999.90;999.90;;;;;;;11.21;61.70;101135.16;15727068;28;20036;-64
2021/04/10 16:49:14;;;;;;;1999.90;999.90;;;;;;;11.07;62.27;101131.69;15745492;28;20047;-59
2021/04/10 16:56:47;;;;;;;1999.90;999.90;;;;;;;11.70;60.73;101141.41;15709901;28;20045;-62
2021/04/10 17:04:18;;;;;;;1999.90;999.90;;;;;;;11.16;62.66;101145.69;15708501;28;20044;-62
2021/04/10 17:11:51;;;;;;;1999.90;999.90;;;;;;;11.01;61.89;101143.34;15743391;28;20049;-60
2021/04/10 17:19:23;;;;;;;1999.90;999.90;;;;;;;10.99;62.87;101149.25;15727473;28;20049;-63
2021/04/10 17:26:55;;;;;;;1999.90;999.90;;;;;;;11.04;62.88;101148.25;15743760;28;20045;-61
2021/04/10 17:34:26;;;;;;;1999.90;999.90;;;;;;;11.15;62.77;101150.44;15742210;28;20080;-61
2021/04/10 17:41:59;;;;;;;1999.90;999.90;;;;;;;11.09;63.22;101145.34;15724315;28;20052;-61
2021/04/10 17:49:30;;;;;;;1999.90;999.90;;;;;;;11.00;63.57;101134.13;15740579;28;20136;-62
2021/04/10 17:57:03;;;;;;;1999.90;999.90;;;;;;;10.89;63.80;101121.63;15713286;28;20492;-61
2021/04/10 18:04:35;;;;;;;1999.90;999.90;;;;;;;11.11;62.79;101126.28;15735152;28;20075;-62
2021/04/10 18:12:08;;;;;;;1999.90;999.90;;;;;;;11.01;63.94;101135.78;15753699;28;20049;-61
2021/04/10 18:19:40;;;;;;;;;;;;;;;10.88;65.17;101131.97;15718363;28;20568;-62
2021/04/10 18:27:13;;;;;;;1999.90;999.90;;;;;;;10.77;65.86;101141.00;15723520;28;19932;-62
2021/04/10 18:34:44;;;;;;;1999.90;999.90;;;;;;;10.56;66.78;101137.97;15687729;28;20127;-61
2021/04/10 18:42:16;;;;;;;1999.90;999.90;;;;;;;10.80;65.62;101134.75;15687682;28;20044;-61
2021/04/10 18:49:48;;;;;;;1999.90;999.90;;;;;;;10.48;66.91;101134.00;15687634;28;20047;-61
2021/04/10 18:57:22;;;;;;;1999.90;999.90;;;;;;;10.36;67.46;101129.03;15688267;28;20056;-62
2021/04/10 19:04:54;;;;;;;1999.90;999.90;;;;;;;10.03;68.15;101124.91;15686474;28;20492;-61
2021/04/10 19:12:26;;;;;;;1999.90;999.90;;;;;;;10.05;68.14;101117.84;15686487;28;20113;-62
2021/04/10 19:19:59;;;;;;;1999.90;999.90;;;;;;;9.87;68.66;101112.50;15686900;28;20045;-63
2021/04/10 19:27:31;;;;;;;1999.90;999.90;;;;;;;9.99;68.60;101110.75;15722455;28;20063;-63
2021/04/10 19:35:03;;;;;;;1999.90;999.90;;;;;;;9.89;68.92;101104.63;15748877;28;20041;-61
2021/04/10 19:42:35;;;;;;;1999.90;999.90;;;;;;;10.03;68.46;101102.59;15730439;28;20043;-61
2021/04/10 19:50:09;;;;;;;1999.90;999.90;;;;;;;9.97;68.86;101106.63;15730493;28;20044;-62
2021/04/10 19:57:41;;;;;;;1999.90;999.90;;;;;;;9.89;68.99;101099.88;15747181;28;20102;-62
2021/04/10 20:05:14;;;;;;;1999.90;999.90;;;;;;;9.65;70.11;101088.25;15745352;28;20045;-61
2021/04/10 20:12:46;;;;;;;1999.90;999.90;;;;;;;9.81;69.58;101081.16;15744408;28;20389;-61
2021/04/10 20:20:18;;;;;;;1999.90;999.90;;;;;;;9.66;70.30;101064.81;15709327;28;20049;-62
2021/04/10 20:27:51;;;;;;;1999.90;999.90;;;;;;;9.78;69.82;101051.94;15727074;28;20091;-62
2021/04/10 20:35:23;;;;;;;1999.90;999.90;;;;;;;9.56;70.82;101057.53;15709601;28;20117;-62
2021/04/10 20:42:56;;;;;;;1999.90;999.90;;;;;;;9.40;71.06;101039.59;15743674;28;20068;-62
2021/04/10 20:50:27;;;;;;;1999.90;999.90;;;;;;;9.51;70.88;101047.38;15738023;28;20041;-61
2021/04/10 20:57:59;;;;;;;1999.90;999.90;;;;;;;9.39;72.83;101041.56;15720283;28;20044;-60
2021/04/10 21:05:31;;;;;;;1999.90;999.90;;;;;;;9.60;72.90;101039.06;15724612;28;20049;-58
2021/04/10 21:13:04;;;;;;;1999.90;999.90;;;;;;;9.36;74.13;101036.59;15723221;28;20070;-62
2021/04/10 21:20:35;;;;;;;1999.90;999.90;;;;;;;9.36;74.13;101033.00;15727146;28;20049;-61
2021/04/10 21:28:08;;;;;;;1999.90;999.90;;;;;;;9.16;74.70;101034.31;15744914;28;20044;-62
2021/04/10 21:35:39;;;;;;;1999.90;999.90;;;;;;;9.30;74.81;101017.56;15743966;28;20114;-62
2021/04/10 21:43:12;;;;;;;1999.90;999.90;;;;;;;9.16;75.16;101003.69;15743704;28;20047;-61
2021/04/10 21:50:43;;;;;;;1999.90;999.90;;;;;;;9.08;75.19;100999.72;15741861;28;20084;-61
2021/04/10 21:58:16;;;;;;;1999.90;999.90;;;;;;;8.94;75.40;100985.84;15740189;28;20511;-62
2021/04/10 22:05:50;;;;;;;1999.90;999.90;;;;;;;9.15;75.46;100985.34;15740924;28;20045;-62
2021/04/10 22:13:23;;;;;;;1999.90;999.90;;;;;;;9.09;75.67;100981.06;15722532;28;20055;-62
2021/04/10 22:20:55;;;;;;;1999.90;999.90;;;;;;;8.85;76.64;100965.47;15723194;28;20044;-63
2021/04/10 22:28:27;;;;;;;1999.90;999.90;;;;;;;8.84;76.80;100960.22;15738882;28;20489;-61
2021/04/10 22:35:58;;;;;;;1999.90;999.90;;;;;;;9.05;75.99;100958.59;15738210;28;20068;-61
2021/04/10 22:43:31;;;;;;;1999.90;999.90;;;;;;;9.04;76.51;100953.34;15710599;28;20056;-62
2021/04/10 22:51:03;;;;;;;1999.90;999.90;;;;;;;8.88;77.36;100945.38;15730694;28;20496;-62
2021/04/10 22:58:36;;;;;;;1999.90;999.90;;;;;;;8.98;77.28;100946.28;15713900;28;20041;-62
2021/04/10 23:06:07;;;;;;;1999.90;999.90;;;;;;;8.94;77.75;100949.66;15747845;28;20048;-62
2021/04/10 23:13:39;;;;;;;1999.90;999.90;;;;;;;8.93;77.83;100945.25;15729572;28;20055;-62
2021/04/10 23:21:11;;;;;;;1999.90;999.90;;;;;;;8.61;78.92;100926.81;15747447;28;20110;-62
2021/04/10 23:28:43;;;;;;;1999.90;999.90;;;;;;;8.84;78.84;100918.47;15746464;28;20075;-62
2021/04/10 23:36:15;;;;;;;1999.90;999.90;;;;;;;8.71;79.19;100902.69;15743542;28;20036;-63
2021/04/10 23:43:47;;;;;;;1999.90;999.90;;;;;;;8.72;79.51;100901.53;15728196;28;20052;-62
2021/04/10 23:51:19;;;;;;;1999.90;999.90;;;;;;;8.81;78.69;100892.13;15744963;28;20041;-62
2021/04/10 23:58:52;;;;;;;1999.90;999.90;;;;;;;8.95;78.61;100892.03;15710509;28;20043;-62
